Time;durP1;ratioP1;P1;durP2;ratioP2;P2;SDS_P1;SDS_P2;PMS_P1;PMS_P2;Temp;Humidity;BMP_temperature;BMP_pressure;BME280_temperature;BME280_humidity;BME280_pressure;Samples;Min_cycle;Max_cycle;Signal;HPM_P1;HPM_P2
2022/06/10 00:01:13;;;;;;;5.20;4.07;;;;;;;;;;6191626;28;20068;-81
2022/06/10 00:04:14;;;;;;;6.43;4.10;;;;;;;;;;6190156;28;20069;-81
2022/06/10 00:07:16;;;;;;;5.75;4.30;;;;;;;;;;6184300;28;20050;-81
2022/06/10 00:10:20;;;;;;;6.38;4.45;;;;;;;;;;6164941;28;20153;-80
2022/06/10 00:13:25;;;;;;;6.43;4.50;;;;;;;;;;6183381;28;20045;-78
2022/06/10 00:16:27;;;;;;;11.68;4.70;;;;;;;;;;6182741;28;20125;-78
2022/06/10 00:19:29;;;;;;;5.00;4.45;;;;;;;;;;6166935;28;20043;-81
2022/06/10 00:22:30;;;;;;;5.35;4.20;;;;;;;;;;6180082;28;20177;-80
2022/06/10 00:25:32;;;;;;;7.18;4.35;;;;;;;;;;6187352;28;20129;-79
2022/06/10 00:28:34;;;;;;;6.32;4.78;;;;;;;;;;6172781;28;20107;-79
2022/06/10 00:31:35;;;;;;;4.35;3.75;;;;;;;;;;6178096;28;20189;-81
2022/06/10 00:34:37;;;;;;;5.75;3.90;;;;;;;;;;6185095;28;20189;-80
2022/06/10 00:37:39;;;;;;;5.97;4.43;;;;;;;;;;6184886;28;20133;-81
2022/06/10 00:40:49;;;;;;;5.28;4.00;;;;;;;;;;6172657;28;20042;-80
2022/06/10 00:43:51;;;;;;;8.57;4.70;;;;;;;;;;6181725;28;20125;-78
2022/06/10 00:46:53;;;;;;;5.20;4.20;;;;;;;;;;6180657;28;20049;-78
2022/06/10 00:49:58;;;;;;;4.93;4.05;;;;;;;;;;6183541;28;20042;-80
2022/06/10 00:53:04;;;;;;;4.60;3.75;;;;;;;;;;6180380;28;20141;-79
2022/06/10 00:56:11;;;;;;;4.78;3.90;;;;;;;;;;6186815;28;20110;-81
2022/06/10 00:59:24;;;;;;;6.25;3.47;;;;;;;;;;6175140;28;20137;-80
2022/06/10 01:02:30;;;;;;;5.38;4.13;;;;;;;;;;6166906;28;20125;-76
2022/06/10 01:05:33;;;;;;;6.13;3.88;;;;;;;;;;6159883;28;20082;-80
2022/06/10 01:08:35;;;;;;;6.65;4.63;;;;;;;;;;6181797;28;20125;-81
2022/06/10 01:12:24;;;;;;;7.10;4.60;;;;;;;;;;6164425;28;20121;-79
2022/06/10 01:15:39;;;;;;;6.88;4.55;;;;;;;;;;6126223;28;20100;-81
2022/06/10 01:19:13;;;;;;;6.85;5.45;;;;;;;;;;6177040;28;20049;-81
2022/06/10 01:22:25;;;;;;;;;;;;;;;;;;6180654;28;20458;-80
2022/06/10 01:25:42;;;;;;;5.68;4.53;;;;;;;;;;6188826;28;20518;-81
2022/06/10 01:29:19;;;;;;;5.10;4.13;;;;;;;;;;6174188;28;20163;-81
2022/06/10 01:32:31;;;;;;;7.95;4.60;;;;;;;;;;6178083;28;20484;-81
2022/06/10 01:35:43;;;;;;;6.55;4.50;;;;;;;;;;6152092;28;20075;-79
2022/06/10 01:38:52;;;;;;;6.57;5.00;;;;;;;;;;6155790;28;20118;-80
2022/06/10 01:42:12;;;;;;;7.85;4.97;;;;;;;;;;6145478;28;20050;-80
2022/06/10 01:45:19;;;;;;;7.30;5.28;;;;;;;;;;6184233;28;20056;-81
2022/06/10 01:48:38;;;;;;;7.43;5.03;;;;;;;;;;6185830;28;20046;-81
2022/06/10 01:51:45;;;;;;;6.85;5.40;;;;;;;;;;6153083;28;20066;-81
2022/06/10 01:54:54;;;;;;;7.25;5.13;;;;;;;;;;6160600;28;20049;-81
2022/06/10 01:58:17;;;;;;;5.13;4.20;;;;;;;;;;6171839;28;20554;-81
2022/06/10 02:01:27;;;;;;;6.70;4.60;;;;;;;;;;6177092;28;20046;-80
2022/06/10 02:04:36;;;;;;;5.93;4.47;;;;;;;;;;6175372;28;20158;-81
2022/06/10 02:07:44;;;;;;;5.65;3.92;;;;;;;;;;6182231;28;20043;-81
2022/06/10 02:11:14;;;;;;;7.45;4.45;;;;;;;;;;6187509;28;20053;-79
2022/06/10 02:14:21;;;;;;;6.22;3.78;;;;;;;;;;6186371;28;20073;-80
2022/06/10 02:17:27;;;;;;;6.18;4.88;;;;;;;;;;6180116;28;20089;-80
2022/06/10 02:20:31;;;;;;;6.57;4.50;;;;;;;;;;6172220;28;20150;-78
2022/06/10 02:23:41;;;;;;;5.68;4.85;;;;;;;;;;6194063;28;20096;-79
2022/06/10 02:26:44;;;;;;;6.18;4.82;;;;;;;;;;6196169;28;20074;-79
2022/06/10 02:30:18;;;;;;;8.75;4.63;;;;;;;;;;6173283;28;20129;-79
2022/06/10 02:33:20;;;;;;;;;;;;;;;;;;6182389;28;20118;-80
2022/06/10 02:36:28;;;;;;;5.30;4.38;;;;;;;;;;6174501;28;19948;-80
2022/06/10 02:39:52;;;;;;;5.35;4.38;;;;;;;;;;6192103;28;20053;-79
2022/06/10 02:43:27;;;;;;;5.78;4.45;;;;;;;;;;6155708;28;20716;-80
2022/06/10 02:46:35;;;;;;;6.18;4.45;;;;;;;;;;6175763;28;20129;-80
2022/06/10 02:49:37;;;;;;;5.82;4.15;;;;;;;;;;6186303;28;20125;-81
2022/06/10 02:52:39;;;;;;;4.25;3.80;;;;;;;;;;6181806;28;20043;-81
2022/06/10 02:55:41;;;;;;;3.70;3.33;;;;;;;;;;6185416;28;20453;-81
2022/06/10 03:02:04;;;;;;;4.03;3.47;;;;;;;;;;6182166;28;20125;-80
2022/06/10 03:05:24;;;;;;;4.45;3.67;;;;;;;;;;6183948;28;20071;-80
2022/06/10 03:08:31;;;;;;;5.43;4.07;;;;;;;;;;6193693;28;20104;-80
2022/06/10 03:11:37;;;;;;;5.65;4.10;;;;;;;;;;6196197;28;20117;-80
2022/06/10 03:14:48;;;;;;;4.57;3.83;;;;;;;;;;6186153;28;20043;-80
2022/06/10 03:18:37;;;;;;;6.47;4.30;;;;;;;;;;6191659;28;20192;-79
2022/06/10 03:22:02;;;;;;;6.07;4.22;;;;;;;;;;6153478;28;20053;-80
2022/06/10 03:25:21;;;;;;;7.45;4.00;;;;;;;;;;6148684;28;20047;-79
2022/06/10 03:28:46;;;;;;;5.85;4.05;;;;;;;;;;6167256;28;20043;-80
2022/06/10 03:31:57;;;;;;;5.18;3.80;;;;;;;;;;6166240;28;20125;-79
2022/06/10 03:35:07;;;;;;;6.70;4.07;;;;;;;;;;6182773;28;20496;-79
2022/06/10 03:38:09;;;;;;;7.03;4.47;;;;;;;;;;6188397;28;20161;-81
2022/06/10 03:41:23;;;;;;;5.68;4.15;;;;;;;;;;6153009;28;20038;-76
2022/06/10 03:44:25;;;;;;;;;;;;;;;;;;6154794;28;20053;-79
2022/06/10 03:47:33;;;;;;;9.55;5.15;;;;;;;;;;6165533;28;20001;-79
2022/06/10 03:50:38;;;;;;;10.18;5.07;;;;;;;;;;6169374;28;20043;-78
2022/06/10 03:53:40;;;;;;;6.90;5.00;;;;;;;;;;6156258;28;20043;-78
2022/06/10 03:56:42;;;;;;;8.60;5.63;;;;;;;;;;6163804;28;20047;-78
2022/06/10 03:59:45;;;;;;;8.70;5.35;;;;;;;;;;6182003;28;20058;-78
2022/06/10 04:02:47;;;;;;;9.98;6.40;;;;;;;;;;6173454;28;20138;-79
2022/06/10 04:05:48;;;;;;;11.15;6.75;;;;;;;;;;6174571;28;20162;-77
2022/06/10 04:09:13;;;;;;;8.52;5.85;;;;;;;;;;6179588;28;20042;-80
2022/06/10 04:12:21;;;;;;;11.35;5.85;;;;;;;;;;6177455;28;20109;-80
2022/06/10 04:15:27;;;;;;;10.57;5.85;;;;;;;;;;6153323;28;20051;-77
2022/06/10 04:18:29;;;;;;;26.45;6.72;;;;;;;;;;6168485;28;20179;-80
2022/06/10 04:21:30;;;;;;;16.35;7.05;;;;;;;;;;6164634;28;20043;-80
2022/06/10 04:24:32;;;;;;;10.95;6.63;;;;;;;;;;6182935;28;20038;-79
2022/06/10 04:27:34;;;;;;;49.65;8.23;;;;;;;;;;6181252;28;20054;-78
2022/06/10 04:30:39;;;;;;;13.25;7.70;;;;;;;;;;6161182;28;20038;-77
2022/06/10 04:33:41;;;;;;;10.93;7.07;;;;;;;;;;6146314;28;20051;-80
2022/06/10 04:36:43;;;;;;;17.48;7.72;;;;;;;;;;6165223;28;20039;-79
2022/06/10 04:39:45;;;;;;;16.92;7.05;;;;;;;;;;6182164;28;20380;-77
2022/06/10 04:42:48;;;;;;;14.07;6.75;;;;;;;;;;6185735;28;20050;-80
2022/06/10 04:45:52;;;;;;;10.50;7.18;;;;;;;;;;6179580;28;20050;-78
2022/06/10 04:48:54;;;;;;;21.58;7.35;;;;;;;;;;6188812;28;20614;-80
2022/06/10 04:51:56;;;;;;;7.45;5.72;;;;;;;;;;6183820;28;20042;-79
2022/06/10 04:54:58;;;;;;;7.10;5.03;;;;;;;;;;6190757;28;20096;-80
2022/06/10 04:57:59;;;;;;;8.35;5.25;;;;;;;;;;6185015;28;20046;-80
2022/06/10 05:01:01;;;;;;;7.88;5.57;;;;;;;;;;6187790;28;20448;-80
2022/06/10 05:04:03;;;;;;;8.63;5.75;;;;;;;;;;6172339;28;20085;-79
2022/06/10 05:07:04;;;;;;;11.50;5.80;;;;;;;;;;6162120;28;20051;-79
2022/06/10 05:10:07;;;;;;;6.90;5.47;;;;;;;;;;6168947;28;20106;-75
2022/06/10 05:13:08;;;;;;;7.93;5.43;;;;;;;;;;6187612;28;20121;-76
2022/06/10 05:16:11;;;;;;;10.77;5.85;;;;;;;;;;6179619;28;20439;-77
2022/06/10 05:19:13;;;;;;;8.35;5.70;;;;;;;;;;6190432;28;20078;-77
2022/06/10 05:22:16;;;;;;;7.38;5.35;;;;;;;;;;6179887;28;20213;-77
2022/06/10 05:25:18;;;;;;;7.90;5.63;;;;;;;;;;6166822;28;20050;-79
2022/06/10 05:28:21;;;;;;;7.43;5.82;;;;;;;;;;6180709;28;20040;-78
2022/06/10 05:31:22;;;;;;;6.78;5.40;;;;;;;;;;6187689;28;20073;-80
2022/06/10 05:37:46;;;;;;;7.53;5.32;;;;;;;;;;6185382;28;20045;-79
2022/06/10 05:42:04;;;;;;;6.30;5.03;;;;;;;;;;6187403;28;20069;-80
2022/06/10 05:44:15;;;;;;;7.28;6.07;;;;;;;;;;6184492;28;20161;-78
2022/06/10 05:47:20;;;;;;;6.47;5.38;;;;;;;;;;6191310;28;20042;-78
2022/06/10 05:50:33;;;;;;;6.45;5.72;;;;;;;;;;6181469;28;20086;-77
2022/06/10 05:53:34;;;;;;;6.97;4.82;;;;;;;;;;6176542;28;20055;-80
2022/06/10 05:56:36;;;;;;;8.23;5.35;;;;;;;;;;6164696;28;20051;-79
2022/06/10 05:59:38;;;;;;;6.10;4.97;;;;;;;;;;6161868;28;20054;-78
2022/06/10 06:02:41;;;;;;;7.63;5.35;;;;;;;;;;6165535;28;20125;-77
2022/06/10 06:05:43;;;;;;;5.63;5.03;;;;;;;;;;6156221;28;20050;-78
2022/06/10 06:08:46;;;;;;;8.18;5.72;;;;;;;;;;6187568;28;20049;-78
2022/06/10 06:11:50;;;;;;;6.10;4.90;;;;;;;;;;6187722;28;20042;-78
2022/06/10 06:14:51;;;;;;;5.35;4.85;;;;;;;;;;6187714;28;20050;-79
2022/06/10 06:17:54;;;;;;;6.75;4.93;;;;;;;;;;6184431;28;20129;-80
2022/06/10 06:20:55;;;;;;;5.55;5.05;;;;;;;;;;6171380;28;20133;-78
2022/06/10 06:23:58;;;;;;;6.70;5.63;;;;;;;;;;6185818;28;20110;-77
2022/06/10 06:27:01;;;;;;;6.38;5.60;;;;;;;;;;6185750;28;20121;-79
2022/06/10 06:30:04;;;;;;;6.65;5.30;;;;;;;;;;6184619;28;20107;-79
2022/06/10 06:33:07;;;;;;;9.90;6.28;;;;;;;;;;6191155;28;20064;-78
2022/06/10 06:36:17;;;;;;;6.80;5.60;;;;;;;;;;6177902;28;20112;-77
2022/06/10 06:39:23;;;;;;;10.48;6.18;;;;;;;;;;6162338;28;20122;-79
2022/06/10 06:42:25;;;;;;;9.73;6.03;;;;;;;;;;6155887;28;20150;-77
2022/06/10 06:45:37;;;;;;;7.90;6.07;;;;;;;;;;6177192;28;20042;-79
2022/06/10 06:48:39;;;;;;;;;;;;;;;;;;6191233;28;20125;-77
2022/06/10 06:51:41;;;;;;;6.22;5.57;;;;;;;;;;6169245;28;19933;-77
2022/06/10 06:54:42;;;;;;;7.53;5.50;;;;;;;;;;6188298;28;20121;-79
2022/06/10 06:57:44;;;;;;;8.07;5.60;;;;;;;;;;6165740;28;20049;-79
2022/06/10 07:00:47;;;;;;;6.80;5.05;;;;;;;;;;6181635;28;20052;-78
2022/06/10 07:03:48;;;;;;;7.03;5.30;;;;;;;;;;6175568;28;20054;-80
2022/06/10 07:06:50;;;;;;;6.93;5.05;;;;;;;;;;6175846;28;20375;-78
2022/06/10 07:09:52;;;;;;;4.85;4.25;;;;;;;;;;6194434;28;20070;-77
2022/06/10 07:12:53;;;;;;;7.05;4.75;;;;;;;;;;6195052;28;20038;-80
2022/06/10 07:15:56;;;;;;;5.20;4.65;;;;;;;;;;6186318;28;20129;-80
2022/06/10 07:18:58;;;;;;;;;;;;;;;;;;6169726;28;20515;-78
2022/06/10 07:22:00;;;;;;;4.93;3.92;;;;;;;;;;6157007;28;20009;-77
2022/06/10 07:25:02;;;;;;;4.80;3.60;;;;;;;;;;6171398;28;20117;-80
2022/06/10 07:28:04;;;;;;;5.05;3.75;;;;;;;;;;6185426;28;20183;-79
2022/06/10 07:31:06;;;;;;;3.70;3.40;;;;;;;;;;6193536;28;20104;-78
2022/06/10 07:34:09;;;;;;;5.07;3.35;;;;;;;;;;6169481;28;20051;-79
2022/06/10 07:37:10;;;;;;;;;;;;;;;;;;6183958;28;20564;-80
2022/06/10 07:44:01;;;;;;;3.15;2.85;;;;;;;;;;6189823;28;20053;-81
2022/06/10 07:47:09;;;;;;;4.53;2.72;;;;;;;;;;6183569;28;20107;-81
2022/06/10 07:50:11;;;;;;;4.28;2.60;;;;;;;;;;6188760;28;20106;-80
2022/06/10 07:53:14;;;;;;;3.28;2.72;;;;;;;;;;6184146;28;20061;-79
2022/06/10 07:56:17;;;;;;;3.50;2.50;;;;;;;;;;6164801;28;20062;-81
2022/06/10 07:59:18;;;;;;;3.78;2.60;;;;;;;;;;6183114;28;20062;-80
2022/06/10 08:02:20;;;;;;;5.85;2.70;;;;;;;;;;6192808;28;20050;-81
2022/06/10 08:05:22;;;;;;;5.80;2.80;;;;;;;;;;6164907;28;20098;-78
2022/06/10 08:08:24;;;;;;;4.43;2.60;;;;;;;;;;6179752;28;20117;-81
2022/06/10 08:11:26;;;;;;;6.72;2.88;;;;;;;;;;6190582;28;20193;-79
2022/06/10 08:14:28;;;;;;;5.70;2.53;;;;;;;;;;6180587;28;20584;-79
2022/06/10 08:17:29;;;;;;;3.50;2.60;;;;;;;;;;6167229;28;20054;-81
2022/06/10 08:23:58;;;;;;;3.63;2.05;;;;;;;;;;6190098;28;20068;-80
2022/06/10 08:27:00;;;;;;;5.30;2.67;;;;;;;;;;6189108;28;20578;-79
2022/06/10 08:30:08;;;;;;;4.95;2.33;;;;;;;;;;6190325;28;20412;-79
2022/06/10 08:33:10;;;;;;;3.20;2.28;;;;;;;;;;6192498;28;20052;-81
2022/06/10 08:36:13;;;;;;;5.18;2.63;;;;;;;;;;6186217;28;20058;-80
2022/06/10 08:39:15;;;;;;;3.03;2.30;;;;;;;;;;6186128;28;20043;-81
2022/06/10 08:42:35;;;;;;;3.85;2.22;;;;;;;;;;6193693;28;20046;-78
2022/06/10 08:46:10;;;;;;;4.00;2.10;;;;;;;;;;6191977;28;20088;-80
2022/06/10 08:50:00;;;;;;;4.85;2.25;;;;;;;;;;6188112;28;20518;-79
2022/06/10 08:53:18;;;;;;;5.38;2.30;;;;;;;;;;6172364;28;20054;-81
2022/06/10 08:56:46;;;;;;;4.05;2.17;;;;;;;;;;6186588;28;20053;-81
2022/06/10 08:59:50;;;;;;;5.32;2.30;;;;;;;;;;6168502;28;20058;-80
2022/06/10 09:03:07;;;;;;;3.80;2.15;;;;;;;;;;6190131;28;20136;-81
2022/06/10 09:06:14;;;;;;;3.42;2.08;;;;;;;;;;6187600;28;20129;-78
2022/06/10 09:09:19;;;;;;;5.20;2.33;;;;;;;;;;6190322;28;20117;-81
2022/06/10 09:12:48;;;;;;;5.22;2.30;;;;;;;;;;6170429;28;20130;-83
2022/06/10 09:15:56;;;;;;;3.97;2.00;;;;;;;;;;6146858;28;20130;-81
2022/06/10 09:19:24;;;;;;;4.72;2.20;;;;;;;;;;6168226;28;20059;-83
2022/06/10 09:22:57;;;;;;;6.85;2.47;;;;;;;;;;6183479;28;20136;-82
2022/06/10 09:26:06;;;;;;;3.85;2.30;;;;;;;;;;6180030;28;20051;-83
2022/06/10 09:29:08;;;;;;;4.03;2.13;;;;;;;;;;6191243;28;20054;-82
2022/06/10 09:32:15;;;;;;;3.90;1.70;;;;;;;;;;6168864;28;20042;-81
2022/06/10 09:35:53;;;;;;;4.30;1.85;;;;;;;;;;6175973;28;20054;-82
2022/06/10 09:39:07;;;;;;;4.75;2.28;;;;;;;;;;6185444;28;20554;-83
2022/06/10 09:42:30;;;;;;;5.53;2.30;;;;;;;;;;6194924;28;20053;-83
2022/06/10 09:45:56;;;;;;;4.53;2.00;;;;;;;;;;6186626;28;20153;-84
2022/06/10 09:49:24;;;;;;;5.35;1.95;;;;;;;;;;6192641;28;20053;-83
2022/06/10 09:52:41;;;;;;;5.97;2.03;;;;;;;;;;6187975;28;20046;-83
2022/06/10 09:56:10;;;;;;;4.55;1.92;;;;;;;;;;6185195;28;20043;-83
2022/06/10 09:59:27;;;;;;;5.75;2.38;;;;;;;;;;6183095;28;20097;-81
2022/06/10 10:02:46;;;;;;;3.55;2.15;;;;;;;;;;6177616;28;20118;-82
2022/06/10 10:06:06;;;;;;;7.95;1.95;;;;;;;;;;6174706;28;20058;-82
2022/06/10 10:09:16;;;;;;;4.47;1.95;;;;;;;;;;6181697;28;20560;-81
2022/06/10 10:12:50;;;;;;;4.43;1.80;;;;;;;;;;6186190;28;20142;-82
2022/06/10 10:16:05;;;;;;;5.85;1.98;;;;;;;;;;6175651;28;20038;-81
2022/06/10 10:19:16;;;;;;;7.03;1.73;;;;;;;;;;6186850;28;20416;-81
2022/06/10 10:22:43;;;;;;;4.57;1.73;;;;;;;;;;6180098;28;20056;-82
2022/06/10 10:25:46;;;;;;;4.38;1.70;;;;;;;;;;6175077;28;20045;-82
2022/06/10 10:28:51;;;;;;;5.15;1.73;;;;;;;;;;6182721;28;20105;-81
2022/06/10 10:32:11;;;;;;;5.40;1.70;;;;;;;;;;6186981;28;20519;-82
2022/06/10 10:35:33;;;;;;;5.70;2.08;;;;;;;;;;6180305;28;20057;-82
2022/06/10 10:38:43;;;;;;;4.87;1.80;;;;;;;;;;6173461;28;20050;-82
2022/06/10 10:41:49;;;;;;;4.75;1.83;;;;;;;;;;6185794;28;20396;-82
2022/06/10 10:45:01;;;;;;;7.32;1.85;;;;;;;;;;6195816;28;20054;-82
2022/06/10 10:48:19;;;;;;;5.05;1.73;;;;;;;;;;6196987;28;20057;-82
2022/06/10 10:51:26;;;;;;;5.97;1.95;;;;;;;;;;6190776;28;20069;-81
2022/06/10 10:54:52;;;;;;;5.22;2.22;;;;;;;;;;6186965;28;20054;-81
2022/06/10 10:58:13;;;;;;;6.43;1.95;;;;;;;;;;6165752;28;20121;-82
2022/06/10 11:01:43;;;;;;;3.33;1.60;;;;;;;;;;6192680;28;21591;-81
2022/06/10 11:04:45;;;;;;;4.72;1.95;;;;;;;;;;6186826;28;20038;-81
2022/06/10 11:08:04;;;;;;;5.10;2.40;;;;;;;;;;6188899;28;20049;-81
2022/06/10 11:11:06;;;;;;;4.30;1.98;;;;;;;;;;6184845;28;20047;-81
2022/06/10 11:14:25;;;;;;;4.43;1.80;;;;;;;;;;6187311;28;20066;-83
2022/06/10 11:17:28;;;;;;;5.25;2.03;;;;;;;;;;6190876;28;20085;-84
2022/06/10 11:20:34;;;;;;;3.37;1.90;;;;;;;;;;6190197;28;20062;-84
2022/06/10 11:23:58;;;;;;;3.63;1.90;;;;;;;;;;6194271;28;20054;-84
2022/06/10 11:27:17;;;;;;;2.97;1.60;;;;;;;;;;6193617;28;20046;-84
2022/06/10 11:30:23;;;;;;;5.50;1.88;;;;;;;;;;6187303;28;20432;-83
2022/06/10 11:33:37;;;;;;;5.40;1.90;;;;;;;;;;6192233;28;20058;-83
2022/06/10 11:36:49;;;;;;;3.17;1.50;;;;;;;;;;6181350;28;20135;-83
2022/06/10 11:39:59;;;;;;;5.97;1.77;;;;;;;;;;6188773;28;20054;-84
2022/06/10 11:43:18;;;;;;;6.80;2.05;;;;;;;;;;6192143;28;20052;-83
2022/06/10 11:46:40;;;;;;;6.13;1.90;;;;;;;;;;6188514;28;20049;-82
2022/06/10 11:49:57;;;;;;;4.25;1.60;;;;;;;;;;6195247;28;20058;-83
2022/06/10 11:53:13;;;;;;;2.92;1.40;;;;;;;;;;6159164;28;20051;-82
2022/06/10 12:00:00;;;;;;;4.13;1.55;;;;;;;;;;6183354;28;20046;-81
2022/06/10 12:03:28;;;;;;;7.00;2.72;;;;;;;;;;6188823;28;20499;-82
2022/06/10 12:06:38;;;;;;;2.95;1.38;;;;;;;;;;6191841;28;20038;-83
2022/06/10 12:09:43;;;;;;;4.25;1.77;;;;;;;;;;6165321;28;20046;-83
2022/06/10 12:12:47;;;;;;;4.82;1.58;;;;;;;;;;6179095;28;20140;-83
2022/06/10 12:15:59;;;;;;;5.65;1.67;;;;;;;;;;6187733;28;20050;-83
2022/06/10 12:19:06;;;;;;;5.88;1.77;;;;;;;;;;6177379;28;20058;-84
2022/06/10 12:22:12;;;;;;;3.88;1.77;;;;;;;;;;6179833;28;20057;-83
2022/06/10 12:25:31;;;;;;;4.30;1.67;;;;;;;;;;6187584;28;20300;-83
2022/06/10 12:28:42;;;;;;;3.08;1.50;;;;;;;;;;6193357;28;20094;-81
2022/06/10 12:31:51;;;;;;;5.03;1.50;;;;;;;;;;6171573;28;20054;-82
2022/06/10 12:35:01;;;;;;;5.10;1.60;;;;;;;;;;6172951;28;20039;-83
2022/06/10 12:38:16;;;;;;;5.78;1.60;;;;;;;;;;6156325;28;20117;-82
2022/06/10 12:41:20;;;;;;;4.18;1.55;;;;;;;;;;6177564;28;20109;-82
2022/06/10 12:44:28;;;;;;;4.20;1.58;;;;;;;;;;6155242;28;20716;-83
2022/06/10 12:47:36;;;;;;;6.68;1.83;;;;;;;;;;6174187;28;20402;-82
2022/06/10 12:50:56;;;;;;;4.25;1.75;;;;;;;;;;6165618;28;20058;-81
2022/06/10 12:54:04;;;;;;;7.13;1.92;;;;;;;;;;6168920;28;20046;-82
2022/06/10 12:57:32;;;;;;;4.32;1.85;;;;;;;;;;6174306;28;20102;-82
2022/06/10 13:00:38;;;;;;;3.72;1.70;;;;;;;;;;6159900;28;20587;-82
2022/06/10 13:03:40;;;;;;;6.05;2.00;;;;;;;;;;6174075;28;20476;-82
2022/06/10 13:06:42;;;;;;;6.25;1.65;;;;;;;;;;6175124;28;20050;-82
2022/06/10 13:09:44;;;;;;;3.17;1.60;;;;;;;;;;6180590;28;20066;-82
2022/06/10 13:12:47;;;;;;;3.97;1.60;;;;;;;;;;6174371;28;20545;-81
2022/06/10 13:15:55;;;;;;;5.90;1.92;;;;;;;;;;6159629;28;20931;-82
2022/06/10 13:18:59;;;;;;;4.28;1.40;;;;;;;;;;6176372;28;20042;-82
2022/06/10 13:22:18;;;;;;;4.07;1.83;;;;;;;;;;6178187;28;20042;-83
2022/06/10 13:25:21;;;;;;;3.28;1.67;;;;;;;;;;6176884;28;20097;-82
2022/06/10 13:28:26;;;;;;;7.43;1.80;;;;;;;;;;6170415;28;20166;-82
2022/06/10 13:31:28;;;;;;;3.05;1.60;;;;;;;;;;6186883;28;20061;-84
2022/06/10 13:34:34;;;;;;;2.60;1.38;;;;;;;;;;6164364;28;20059;-82
2022/06/10 13:37:38;;;;;;;3.67;1.27;;;;;;;;;;6172285;28;20046;-83
2022/06/10 13:40:48;;;;;;;5.32;1.45;;;;;;;;;;6185130;28;20058;-83
2022/06/10 13:43:52;;;;;;;4.22;1.50;;;;;;;;;;6175517;28;20372;-81
2022/06/10 13:46:54;;;;;;;6.53;1.60;;;;;;;;;;6180802;28;20166;-84
2022/06/10 13:53:28;;;;;;;4.32;1.52;;;;;;;;;;6175953;28;20541;-85
2022/06/10 13:56:42;;;;;;;3.90;1.27;;;;;;;;;;6164832;28;20046;-85
2022/06/10 13:59:44;;;;;;;2.10;1.20;;;;;;;;;;6159566;28;20078;-87
2022/06/10 14:02:46;;;;;;;3.10;1.10;;;;;;;;;;6176610;28;20053;-83
2022/06/10 14:05:58;;;;;;;3.83;1.20;;;;;;;;;;6176219;28;20133;-84
2022/06/10 14:09:17;;;;;;;6.40;1.77;;;;;;;;;;6172668;28;20044;-85
2022/06/10 14:12:25;;;;;;;7.53;1.40;;;;;;;;;;6187640;28;20038;-86
2022/06/10 14:15:31;;;;;;;2.70;1.50;;;;;;;;;;6160231;28;20531;-84
2022/06/10 14:18:36;;;;;;;2.78;1.17;;;;;;;;;;6180262;28;20078;-84
2022/06/10 14:21:38;;;;;;;4.95;1.65;;;;;;;;;;6184724;28;20126;-85
2022/06/10 14:24:40;;;;;;;5.63;1.63;;;;;;;;;;6187173;28;20053;-85
2022/06/10 14:27:48;;;;;;;3.20;1.35;;;;;;;;;;6175523;28;20797;-87
2022/06/10 14:30:59;;;;;;;3.90;1.30;;;;;;;;;;6187068;28;20050;-87
2022/06/10 14:34:01;;;;;;;3.85;1.20;;;;;;;;;;6190848;28;20054;-87
2022/06/10 14:37:23;;;;;;;4.10;1.48;;;;;;;;;;6186978;28;20062;-85
2022/06/10 14:40:26;;;;;;;4.93;1.30;;;;;;;;;;6171245;28;20138;-86
2022/06/10 14:43:33;;;;;;;2.85;1.08;;;;;;;;;;6177468;28;20411;-86
2022/06/10 14:46:35;;;;;;;5.50;1.50;;;;;;;;;;6180947;28;20063;-85
2022/06/10 14:49:47;;;;;;;2.03;1.20;;;;;;;;;;6192350;28;20058;-85
2022/06/10 14:52:51;;;;;;;3.57;1.30;;;;;;;;;;6188123;28;20121;-83
2022/06/10 14:55:52;;;;;;;2.67;1.40;;;;;;;;;;6195019;28;20050;-85
2022/06/10 14:58:55;;;;;;;5.07;1.40;;;;;;;;;;6196144;28;20042;-88
2022/06/10 15:01:59;;;;;;;5.80;1.30;;;;;;;;;;6197774;28;20065;-85
2022/06/10 15:08:33;;;;;;;6.30;1.58;;;;;;;;;;6193782;28;20066;-85
2022/06/10 15:11:40;;;;;;;6.10;1.58;;;;;;;;;;6177721;28;20093;-83
2022/06/10 15:14:42;;;;;;;4.45;1.58;;;;;;;;;;6192233;28;20053;-84
2022/06/10 15:17:52;;;;;;;3.20;1.23;;;;;;;;;;6196935;28;20046;-84
2022/06/10 15:20:54;;;;;;;2.67;1.20;;;;;;;;;;6184663;28;20075;-83
2022/06/10 15:23:57;;;;;;;4.93;1.45;;;;;;;;;;6184517;28;20050;-83
2022/06/10 15:26:59;;;;;;;5.05;1.52;;;;;;;;;;6168935;28;20049;-83
2022/06/10 15:30:01;;;;;;;3.33;1.42;;;;;;;;;;6167963;28;20130;-82
2022/06/10 15:33:03;;;;;;;6.35;2.05;;;;;;;;;;6183568;28;20055;-83
2022/06/10 15:43:05;;;;;;;2.80;1.15;;;;;;;;;;6181771;28;20077;-84
2022/06/10 15:46:17;;;;;;;4.93;1.60;;;;;;;;;;6179569;28;20069;-85
2022/06/10 15:49:19;;;;;;;4.70;1.52;;;;;;;;;;6189936;28;20050;-81
2022/06/10 15:52:36;;;;;;;8.68;1.70;;;;;;;;;;6146409;28;20066;-82
2022/06/10 15:58:58;;;;;;;4.00;2.03;;;;;;;;;;6187112;28;20136;-84
2022/06/10 16:02:00;;;;;;;2.30;1.30;;;;;;;;;;6189168;28;20046;-84
2022/06/10 16:05:02;;;;;;;6.85;1.60;;;;;;;;;;6182982;28;20046;-82
2022/06/10 16:08:04;;;;;;;3.13;1.30;;;;;;;;;;6191773;28;20062;-83
2022/06/10 16:11:14;;;;;;;3.42;1.50;;;;;;;;;;6189795;28;20050;-84
2022/06/10 16:14:15;;;;;;;3.15;1.38;;;;;;;;;;6189544;28;20058;-84
2022/06/10 16:17:28;;;;;;;5.43;1.95;;;;;;;;;;6176721;28;20046;-85
2022/06/10 16:20:31;;;;;;;3.95;1.73;;;;;;;;;;6178110;28;20408;-85
2022/06/10 16:23:36;;;;;;;3.90;1.70;;;;;;;;;;6190902;28;20132;-84
2022/06/10 16:26:38;;;;;;;4.15;1.63;;;;;;;;;;6179269;28;20105;-84
2022/06/10 16:29:43;;;;;;;3.50;1.60;;;;;;;;;;6182085;28;20062;-83
2022/06/10 16:32:45;;;;;;;2.47;1.40;;;;;;;;;;6187708;28;20074;-84
2022/06/10 16:35:47;;;;;;;5.53;1.70;;;;;;;;;;6177979;28;20109;-83
2022/06/10 16:38:49;;;;;;;4.65;1.70;;;;;;;;;;6181924;28;20065;-83
2022/06/10 16:41:51;;;;;;;4.45;1.88;;;;;;;;;;6192663;28;20081;-84
2022/06/10 16:44:54;;;;;;;4.93;1.53;;;;;;;;;;6156106;28;20404;-84
2022/06/10 16:47:58;;;;;;;2.92;1.40;;;;;;;;;;6185455;28;20066;-83
2022/06/10 16:51:00;;;;;;;5.35;2.80;;;;;;;;;;6185011;28;20050;-82
2022/06/10 16:54:21;;;;;;;8.95;2.22;;;;;;;;;;6178630;28;20043;-83
2022/06/10 16:57:34;;;;;;;4.43;1.70;;;;;;;;;;6181031;28;20050;-83
2022/06/10 17:00:36;;;;;;;3.92;1.60;;;;;;;;;;6174535;28;20813;-83
2022/06/10 17:03:37;;;;;;;4.70;2.00;;;;;;;;;;6193653;28;20042;-83
2022/06/10 17:06:39;;;;;;;4.13;1.60;;;;;;;;;;6160976;28;20049;-83
2022/06/10 17:09:41;;;;;;;3.33;1.80;;;;;;;;;;6185978;28;20074;-83
2022/06/10 17:12:54;;;;;;;4.10;1.70;;;;;;;;;;6183159;28;20472;-84
2022/06/10 17:15:56;;;;;;;5.80;1.88;;;;;;;;;;6155424;28;20051;-83
2022/06/10 17:18:59;;;;;;;5.40;1.88;;;;;;;;;;6158411;28;20449;-82
2022/06/10 17:22:01;;;;;;;5.00;1.70;;;;;;;;;;6180748;28;20050;-81
2022/06/10 17:25:04;;;;;;;5.05;1.73;;;;;;;;;;6183487;28;20042;-83
2022/06/10 17:28:06;;;;;;;;;;;;;;;;;;6183921;28;20042;-82
2022/06/10 17:31:12;;;;;;;4.03;1.70;;;;;;;;;;6180312;28;19926;-82
2022/06/10 17:34:14;;;;;;;3.78;1.80;;;;;;;;;;6180883;28;20101;-82
2022/06/10 17:37:18;;;;;;;3.90;1.50;;;;;;;;;;6164892;28;20050;-82
2022/06/10 17:40:20;;;;;;;3.63;1.55;;;;;;;;;;6135796;28;20047;-81
2022/06/10 17:43:24;;;;;;;6.35;1.92;;;;;;;;;;6177586;28;20054;-82
2022/06/10 17:46:46;;;;;;;4.85;1.70;;;;;;;;;;6190690;28;20046;-82
2022/06/10 17:49:50;;;;;;;3.97;1.80;;;;;;;;;;6189648;28;20054;-81
2022/06/10 17:52:53;;;;;;;4.53;1.70;;;;;;;;;;6156175;28;20086;-82
2022/06/10 17:55:54;;;;;;;3.50;1.77;;;;;;;;;;6174583;28;20038;-82
2022/06/10 17:58:56;;;;;;;4.63;1.77;;;;;;;;;;6162018;28;20058;-81
2022/06/10 18:01:58;;;;;;;4.97;1.83;;;;;;;;;;6168028;28;20074;-82
2022/06/10 18:05:22;;;;;;;3.65;1.63;;;;;;;;;;6167248;28;20504;-82
2022/06/10 18:08:26;;;;;;;3.67;1.50;;;;;;;;;;6186404;28;20058;-82
2022/06/10 18:11:34;;;;;;;4.47;1.88;;;;;;;;;;6180983;28;20211;-82
2022/06/10 18:14:54;;;;;;;4.60;1.85;;;;;;;;;;6179434;28;20039;-81
2022/06/10 18:17:56;;;;;;;6.35;1.90;;;;;;;;;;6196166;28;20114;-82
2022/06/10 18:20:58;;;;;;;5.50;1.90;;;;;;;;;;6160841;28;20045;-81
2022/06/10 18:24:00;;;;;;;4.82;1.92;;;;;;;;;;6179270;28;20049;-82
2022/06/10 18:27:03;;;;;;;3.78;1.80;;;;;;;;;;6155842;28;20078;-82
2022/06/10 18:30:14;;;;;;;5.15;2.05;;;;;;;;;;6189432;28;20066;-82
2022/06/10 18:33:16;;;;;;;4.20;1.77;;;;;;;;;;6183083;28;20097;-82
2022/06/10 18:36:18;;;;;;;3.30;1.43;;;;;;;;;;6187259;28;20093;-82
2022/06/10 18:39:23;;;;;;;2.20;1.50;;;;;;;;;;6185344;28;20089;-82
2022/06/10 18:42:27;;;;;;;4.05;1.50;;;;;;;;;;6186824;28;20129;-82
2022/06/10 18:45:31;;;;;;;3.25;1.60;;;;;;;;;;6174636;28;20058;-81
2022/06/10 18:48:41;;;;;;;3.97;1.95;;;;;;;;;;6187029;28;20058;-83
2022/06/10 18:51:48;;;;;;;4.22;1.45;;;;;;;;;;6180085;28;20042;-83
2022/06/10 18:54:55;;;;;;;5.97;1.80;;;;;;;;;;6167599;28;20046;-81
2022/06/10 18:57:58;;;;;;;5.93;1.73;;;;;;;;;;6157359;28;20043;-81
2022/06/10 19:01:03;;;;;;;3.10;2.35;;;;;;;;;;6190457;28;20080;-82
2022/06/10 19:04:15;;;;;;;6.10;2.05;;;;;;;;;;6195654;28;20508;-81
2022/06/10 19:07:25;;;;;;;4.75;2.67;;;;;;;;;;6190044;28;20042;-81
2022/06/10 19:10:39;;;;;;;3.70;1.77;;;;;;;;;;6173227;28;20101;-82
2022/06/10 19:13:42;;;;;;;4.63;2.10;;;;;;;;;;6188898;28;20066;-82
2022/06/10 19:16:48;;;;;;;7.13;2.15;;;;;;;;;;6179889;28;20054;-81
2022/06/10 19:19:57;;;;;;;3.97;1.92;;;;;;;;;;6164493;28;20046;-81
2022/06/10 19:23:03;;;;;;;3.58;1.90;;;;;;;;;;6185622;28;20804;-82
2022/06/10 19:26:05;;;;;;;3.60;1.95;;;;;;;;;;6181880;28;20061;-82